Terminal Aerodrome Forecast
Issued by NWS Lubbock, TX

Home | Current Version | Previous Version | Text Only | Print | Product List | Glossary On
Versions: 1 2 3 4 5 6 7 8 9 10 11 12 13 14 15 16
916
FTUS44 KLUB 281934 AAA
TAFLBB
TAF AMD
KLBB 281934Z 2820/2918 11016KT 3SM -RA BR SCT004 BKN020
      TEMPO 2820/2822 VRB50KT 5SM TSRAGR BR OVC010CB
     FM282200 21018G28KT P6SM SCT050 SCT120
      TEMPO 2822/2901 3SM -TSRA OVC020CB
     FM290100 24010KT P6SM SCT150 SCT250 PROB30 2908/2914 5SM -TSRA
      BKN020CB=

USA.gov is the U.S. government's official web portal to all federal, state and local government web resources and services.